Time,TemperatureF,DewpointF,PressureIn,WindDirection,WindDirectionDegrees,WindSpeedMPH,WindSpeedGustMPH,Humidity,HourlyPrecipIn,Conditions,Clouds,dailyrainin,SoftwareType,DateUTC
2013-04-23 00:00:00,46.6,30.8,30.35,South,184,3.5,3.5,54,0.00,,,0.00,WeatherDisplay:10.37,2013-04-23 04:00:00,
2013-04-23 00:01:00,46.5,30.7,30.35,SSW,210,3.5,3.5,54,0.00,,,0.00,WeatherDisplay:10.37,2013-04-23 04:01:00,
2013-04-23 00:03:00,46.5,30.7,30.35,South,183,6.9,6.9,54,0.00,,,0.00,WeatherDisplay:10.37,2013-04-23 04:03:00,
2013-04-23 00:08:00,46.4,31.1,30.35,SSW,203,3.5,3.5,55,0.00,,,0.00,WeatherDisplay:10.37,2013-04-23 04:08:00,
2013-04-23 00:13:00,46.3,31.0,30.35,SSW,203,3.5,0.0,55,0.00,,,0.00,WeatherDisplay:10.37,2013-04-23 04:13:00,
2013-04-23 00:18:00,46.1,31.3,30.35,SSW,203,0.0,0.0,56,0.00,,,0.00,WeatherDisplay:10.37,2013-04-23 04:18:00,
2013-04-23 00:23:00,46.0,31.2,30.35,SSW,203,0.0,0.0,56,0.00,,,0.00,WeatherDisplay:10.37,2013-04-23 04:23:00,
2013-04-23 00:28:00,45.9,31.5,30.34,SSW,203,0.0,0.0,57,0.00,,,0.00,WeatherDisplay:10.37,2013-04-23 04:28:00,
2013-04-23 00:33:00,45.6,31.7,30.35,SSW,203,4.6,4.6,58,0.00,,,0.00,WeatherDisplay:10.37,2013-04-23 04:33:00,
2013-04-23 00:38:00,45.4,31.9,30.35,SSE,150,0.0,0.0,59,0.00,,,0.00,WeatherDisplay:10.37,2013-04-23 04:38:00,
2013-04-23 00:43:00,45.2,31.7,30.35,SSW,213,3.5,3.5,59,0.00,,,0.00,WeatherDisplay:10.37,2013-04-23 04:43:00,
2013-04-23 00:48:00,45.2,31.7,30.35,South,189,4.6,4.6,59,0.00,,,0.00,WeatherDisplay:10.37,2013-04-23 04:48:00,
2013-04-23 00:53:00,45.0,31.9,30.35,South,189,0.0,0.0,60,0.00,,,0.00,WeatherDisplay:10.37,2013-04-23 04:53:00,
2013-04-23 00:58:00,45.0,31.9,30.34,SSW,192,4.0,4.0,60,0.00,,,0.00,WeatherDisplay:10.37,2013-04-23 04:58:00,
2013-04-23 01:03:00,44.9,32.3,30.34,SSW,192,0.0,0.0,61,0.00,,,0.00,WeatherDisplay:10.37,2013-04-23 05:03:00,
2013-04-23 01:08:00,44.7,32.5,30.34,SSW,192,1.1,0.0,62,0.00,,,0.00,WeatherDisplay:10.37,2013-04-23 05:08:00,
2013-04-23 01:13:00,44.6,32.4,30.34,South,191,0.0,0.0,62,0.00,,,0.00,WeatherDisplay:10.37,2013-04-23 05:13:00,
2013-04-23 01:18:00,44.5,32.7,30.34,SSW,213,0.0,1.1,63,0.00,,,0.00,WeatherDisplay:10.37,2013-04-23 05:18:00,
2013-04-23 01:23:00,44.4,32.6,30.34,SSW,192,9.2,9.2,63,0.00,,,0.00,WeatherDisplay:10.37,2013-04-23 05:23:00,
2013-04-23 01:28:00,44.2,32.4,30.34,South,190,2.0,0.0,63,0.00,,,0.00,WeatherDisplay:10.37,2013-04-23 05:28:00,
2013-04-23 01:33:00,44.1,33.1,30.34,SSW,194,0.0,0.0,65,0.00,,,0.00,WeatherDisplay:10.37,2013-04-23 05:33:00,
2013-04-23 01:38:00,44.0,33.0,30.34,SSW,194,0.0,0.0,65,0.00,,,0.00,WeatherDisplay:10.37,2013-04-23 05:38:00,
2013-04-23 01:43:00,43.8,33.2,30.34,SSW,194,0.0,0.0,66,0.00,,,0.00,WeatherDisplay:10.37,2013-04-23 05:43:00,
2013-04-23 01:48:00,43.7,33.1,30.33,SSW,194,0.0,0.0,66,0.00,,,0.00,WeatherDisplay:10.37,2013-04-23 05:48:00,
2013-04-23 01:53:00,43.5,33.3,30.34,SSW,194,0.0,0.0,67,0.00,,,0.00,WeatherDisplay:10.37,2013-04-23 05:53:00,
2013-04-23 01:58:00,43.3,33.1,30.33,SSW,194,0.0,0.0,67,0.00,,,0.00,WeatherDisplay:10.37,2013-04-23 05:58:00,
2013-04-23 02:03:00,43.1,32.9,30.33,SSW,194,0.0,0.0,67,0.00,,,0.00,WeatherDisplay:10.37,2013-04-23 06:03:00,
2013-04-23 02:08:00,42.8,33.0,30.33,SSW,194,0.0,0.0,68,0.00,,,0.00,WeatherDisplay:10.37,2013-04-23 06:08:00,
2013-04-23 02:13:00,42.3,32.5,30.33,SSW,194,0.0,0.0,68,0.00,,,0.00,WeatherDisplay:10.37,2013-04-23 06:13:00,
2013-04-23 02:18:00,41.9,32.5,30.33,SSW,194,0.0,0.0,69,0.00,,,0.00,WeatherDisplay:10.37,2013-04-23 06:18:00,
2013-04-23 02:23:00,41.6,32.2,30.33,SSW,194,0.0,0.0,69,0.00,,,0.00,WeatherDisplay:10.37,2013-04-23 06:23:00,
2013-04-23 02:28:00,41.4,32.3,30.33,SSW,194,0.0,0.0,70,0.00,,,0.00,WeatherDisplay:10.37,2013-04-23 06:28:00,
2013-04-23 02:33:00,41.2,32.2,30.33,SSW,194,0.0,0.0,70,0.00,,,0.00,WeatherDisplay:10.37,2013-04-23 06:33:00,
2013-04-23 02:38:00,41.1,32.1,30.33,SSW,194,0.0,0.0,70,0.00,,,0.00,WeatherDisplay:10.37,2013-04-23 06:38:00,
2013-04-23 02:43:00,41.0,33.3,30.33,SSW,194,0.0,0.0,74,0.00,,,0.00,WeatherDisplay:10.37,2013-04-23 06:43:00,
2013-04-23 02:48:00,40.9,32.2,30.33,SSW,194,0.0,0.0,71,0.00,,,0.00,WeatherDisplay:10.37,2013-04-23 06:48:00,
2013-04-23 02:53:00,40.7,32.0,30.33,SSW,194,0.0,0.0,71,0.00,,,0.00,WeatherDisplay:10.37,2013-04-23 06:53:00,
2013-04-23 02:58:00,40.6,31.9,30.33,SSW,194,0.0,0.0,71,0.00,,,0.00,WeatherDisplay:10.37,2013-04-23 06:58:00,
2013-04-23 03:03:00,40.4,32.1,30.32,SSW,194,0.0,0.0,72,0.00,,,0.00,WeatherDisplay:10.37,2013-04-23 07:03:00,
2013-04-23 03:08:00,40.2,31.9,30.32,SSW,194,0.0,0.0,72,0.00,,,0.00,WeatherDisplay:10.37,2013-04-23 07:08:00,
2013-04-23 03:13:00,40.2,31.9,30.32,SSW,194,0.0,0.0,72,0.00,,,0.00,WeatherDisplay:10.37,2013-04-23 07:13:00,
2013-04-23 03:18:00,40.1,32.1,30.32,SSW,194,0.0,0.0,73,0.00,,,0.00,WeatherDisplay:10.37,2013-04-23 07:18:00,
2013-04-23 03:23:00,40.0,32.0,30.32,SSW,194,0.0,0.0,73,0.00,,,0.00,WeatherDisplay:10.37,2013-04-23 07:23:00,
2013-04-23 03:28:00,39.9,32.3,30.32,SSW,194,0.0,0.0,74,0.00,,,0.00,WeatherDisplay:10.37,2013-04-23 07:28:00,
2013-04-23 03:33:00,39.8,32.2,30.32,SSW,194,0.0,0.0,74,0.00,,,0.00,WeatherDisplay:10.37,2013-04-23 07:33:00,
2013-04-23 03:38:00,39.8,32.2,30.32,SSW,194,0.0,0.0,74,0.00,,,0.00,WeatherDisplay:10.37,2013-04-23 07:38:00,
2013-04-23 03:43:00,39.8,32.2,30.32,SSW,194,3.5,3.5,74,0.00,,,0.00,WeatherDisplay:10.37,2013-04-23 07:43:00,
2013-04-23 03:48:00,39.8,32.2,30.32,SSW,198,1.1,0.0,74,0.00,,,0.00,WeatherDisplay:10.37,2013-04-23 07:48:00,
2013-04-23 03:53:00,39.8,31.8,30.32,SSW,198,0.0,0.0,73,0.00,,,0.00,WeatherDisplay:10.37,2013-04-23 07:53:00,
2013-04-23 03:58:00,39.9,31.9,30.32,SSW,198,3.5,3.5,73,0.00,,,0.00,WeatherDisplay:10.37,2013-04-23 07:58:00,
2013-04-23 04:03:00,39.8,31.8,30.32,SSW,198,0.0,0.0,73,0.00,,,0.00,WeatherDisplay:10.37,2013-04-23 08:03:00,
2013-04-23 04:08:00,39.8,31.8,30.32,SSW,198,0.0,0.0,73,0.00,,,0.00,WeatherDisplay:10.37,2013-04-23 08:08:00,
2013-04-23 04:13:00,39.7,32.1,30.31,SSW,198,0.0,0.0,74,0.00,,,0.00,WeatherDisplay:10.37,2013-04-23 08:13:00,
2013-04-23 04:18:00,39.6,32.0,30.31,SSW,198,0.0,0.0,74,0.00,,,0.00,WeatherDisplay:10.37,2013-04-23 08:18:00,
2013-04-23 04:23:00,39.5,31.9,30.31,SSW,198,0.0,0.0,74,0.00,,,0.00,WeatherDisplay:10.37,2013-04-23 08:23:00,
2013-04-23 04:28:00,39.3,31.7,30.31,SSW,198,0.0,0.0,74,0.00,,,0.00,WeatherDisplay:10.37,2013-04-23 08:28:00,
2013-04-23 04:33:00,39.2,31.6,30.31,SSW,198,0.0,0.0,74,0.00,,,0.00,WeatherDisplay:10.37,2013-04-23 08:33:00,
2013-04-23 04:38:00,39.0,31.4,30.31,SSW,198,0.0,0.0,74,0.00,,,0.00,WeatherDisplay:10.37,2013-04-23 08:38:00,
2013-04-23 04:43:00,38.8,31.2,30.31,SSW,198,0.0,0.0,74,0.00,,,0.00,WeatherDisplay:10.37,2013-04-23 08:43:00,
2013-04-23 04:48:00,38.7,31.1,30.31,SSW,198,0.0,0.0,74,0.00,,,0.00,WeatherDisplay:10.37,2013-04-23 08:48:00,
2013-04-23 04:53:00,38.6,31.0,30.31,SSW,198,0.0,0.0,74,0.00,,,0.00,WeatherDisplay:10.37,2013-04-23 08:53:00,
2013-04-23 04:58:00,38.4,30.8,30.31,SSW,198,0.0,0.0,74,0.00,,,0.00,WeatherDisplay:10.37,2013-04-23 08:58:00,
2013-04-23 05:03:00,38.4,31.2,30.31,SSW,198,0.0,0.0,75,0.00,,,0.00,WeatherDisplay:10.37,2013-04-23 09:03:00,
2013-04-23 05:08:00,38.3,31.1,30.31,SSW,198,0.0,0.0,75,0.00,,,0.00,WeatherDisplay:10.37,2013-04-23 09:08:00,
2013-04-23 05:13:00,38.2,31.0,30.31,SSW,198,0.0,0.0,75,0.00,,,0.00,WeatherDisplay:10.37,2013-04-23 09:13:00,
2013-04-23 05:18:00,37.8,30.6,30.31,SSW,198,0.0,0.0,75,0.00,,,0.00,WeatherDisplay:10.37,2013-04-23 09:18:00,
2013-04-23 05:23:00,37.5,30.3,30.31,SSW,198,0.0,0.0,75,0.00,,,0.00,WeatherDisplay:10.37,2013-04-23 09:23:00,
2013-04-23 05:28:00,37.2,30.3,30.31,SSW,198,0.0,0.0,76,0.00,,,0.00,WeatherDisplay:10.37,2013-04-23 09:28:00,
2013-04-23 05:33:00,37.0,30.5,30.30,SSW,198,0.0,0.0,77,0.00,,,0.00,WeatherDisplay:10.37,2013-04-23 09:33:00,
2013-04-23 05:38:00,36.9,30.4,30.30,SSW,198,0.0,0.0,77,0.00,,,0.00,WeatherDisplay:10.37,2013-04-23 09:38:00,
2013-04-23 05:43:00,36.8,30.3,30.30,SSW,198,0.0,0.0,77,0.00,,,0.00,WeatherDisplay:10.37,2013-04-23 09:43:00,
2013-04-23 05:48:00,36.7,30.5,30.30,SSW,198,0.0,0.0,78,0.00,,,0.00,WeatherDisplay:10.37,2013-04-23 09:48:00,
2013-04-23 05:53:00,36.6,30.4,30.30,SSW,198,0.0,0.0,78,0.00,,,0.00,WeatherDisplay:10.37,2013-04-23 09:53:00,
2013-04-23 05:58:00,36.5,30.3,30.30,SSW,198,0.0,0.0,78,0.00,,,0.00,WeatherDisplay:10.37,2013-04-23 09:58:00,
2013-04-23 06:03:00,36.3,30.1,30.30,SSW,198,0.0,0.0,78,0.00,,,0.00,WeatherDisplay:10.37,2013-04-23 10:03:00,
2013-04-23 06:08:00,36.3,30.1,30.29,SSW,198,0.0,0.0,78,0.00,,,0.00,WeatherDisplay:10.37,2013-04-23 10:08:00,
2013-04-23 06:13:00,36.3,30.1,30.29,SSW,198,0.0,0.0,78,0.00,,,0.00,WeatherDisplay:10.37,2013-04-23 10:13:00,
2013-04-23 06:18:00,36.3,30.1,30.29,SSW,198,0.0,0.0,78,0.00,,,0.00,WeatherDisplay:10.37,2013-04-23 10:18:00,
2013-04-23 06:23:00,36.3,30.1,30.29,SSW,198,0.0,0.0,78,0.00,,,0.00,WeatherDisplay:10.37,2013-04-23 10:23:00,
2013-04-23 06:28:00,36.3,30.1,30.29,SSW,198,0.0,0.0,78,0.00,,,0.00,WeatherDisplay:10.37,2013-04-23 10:28:00,
2013-04-23 06:33:00,36.4,30.2,30.29,SSW,198,0.0,0.0,78,0.00,,,0.00,WeatherDisplay:10.37,2013-04-23 10:33:00,
2013-04-23 06:38:00,36.5,30.3,30.28,South,178,3.5,3.5,78,0.00,,,0.00,WeatherDisplay:10.37,2013-04-23 10:38:00,
2013-04-23 06:43:00,36.6,30.4,30.28,SSE,163,2.3,2.3,78,0.00,,,0.00,WeatherDisplay:10.37,2013-04-23 10:43:00,
2013-04-23 06:48:00,36.8,30.6,30.28,South,174,0.0,0.0,78,0.00,,,0.00,WeatherDisplay:10.37,2013-04-23 10:48:00,
2013-04-23 06:53:00,36.8,30.6,30.28,South,190,0.0,0.0,78,0.00,,,0.00,WeatherDisplay:10.37,2013-04-23 10:53:00,
2013-04-23 06:58:00,37.0,30.5,30.28,SSE,151,2.3,0.0,77,0.00,,,0.00,WeatherDisplay:10.37,2013-04-23 10:58:00,
2013-04-23 07:03:00,37.1,30.6,30.28,SSW,198,0.0,0.0,77,0.00,,,0.00,WeatherDisplay:10.37,2013-04-23 11:03:00,
2013-04-23 07:08:00,37.3,30.7,30.28,SSW,209,0.0,0.0,77,0.00,,,0.00,WeatherDisplay:10.37,2013-04-23 11:08:00,
2013-04-23 07:13:00,37.5,30.6,30.29,SSW,192,0.0,0.0,76,0.00,,,0.00,WeatherDisplay:10.37,2013-04-23 11:13:00,
2013-04-23 07:18:00,37.6,30.7,30.28,South,185,0.0,0.0,76,0.00,,,0.00,WeatherDisplay:10.37,2013-04-23 11:18:00,
2013-04-23 07:23:00,37.8,30.9,30.28,South,187,0.0,0.0,76,0.00,,,0.00,WeatherDisplay:10.37,2013-04-23 11:23:00,
2013-04-23 07:28:00,38.0,31.1,30.28,SE,142,3.5,3.5,76,0.00,,,0.00,WeatherDisplay:10.37,2013-04-23 11:28:00,
2013-04-23 07:33:00,38.3,31.4,30.28,SSW,194,0.0,0.0,76,0.00,,,0.00,WeatherDisplay:10.37,2013-04-23 11:33:00,
2013-04-23 07:38:00,38.5,31.3,30.28,SSW,202,5.0,5.0,75,0.00,,,0.00,WeatherDisplay:10.37,2013-04-23 11:38:00,
2013-04-23 07:43:00,38.9,31.3,30.28,SE,134,11.5,11.5,74,0.00,,,0.00,WeatherDisplay:10.37,2013-04-23 11:43:00,
2013-04-23 07:48:00,39.2,31.6,30.28,SSW,204,4.6,0.0,74,0.00,,,0.00,WeatherDisplay:10.37,2013-04-23 11:48:00,
2013-04-23 07:53:00,39.5,31.9,30.28,ESE,113,4.0,4.0,74,0.00,,,0.00,WeatherDisplay:10.37,2013-04-23 11:53:00,
2013-04-23 07:58:00,39.8,31.8,30.28,SSW,211,3.5,3.5,73,0.00,,,0.00,WeatherDisplay:10.37,2013-04-23 11:58:00,
2013-04-23 08:03:00,40.2,32.2,30.28,SSW,194,2.3,0.0,73,0.00,,,0.00,WeatherDisplay:10.37,2013-04-23 12:03:00,
2013-04-23 08:08:00,40.6,31.9,30.28,SSW,205,4.0,4.0,71,0.00,,,0.00,WeatherDisplay:10.37,2013-04-23 12:08:00,
2013-04-23 08:13:00,41.0,32.3,30.27,SE,132,5.8,5.8,71,0.00,,,0.00,WeatherDisplay:10.37,2013-04-23 12:13:00,
2013-04-23 08:18:00,41.1,32.4,30.27,ESE,117,4.0,4.0,71,0.00,,,0.00,WeatherDisplay:10.37,2013-04-23 12:18:00,
2013-04-23 08:23:00,41.5,32.4,30.27,SSW,211,5.0,5.0,70,0.00,,,0.00,WeatherDisplay:10.37,2013-04-23 12:23:00,
2013-04-23 08:28:00,41.8,32.7,30.27,SSE,147,6.0,6.0,70,0.00,,,0.00,WeatherDisplay:10.37,2013-04-23 12:28:00,
2013-04-23 08:33:00,42.1,33.0,30.27,SSW,193,8.0,8.0,70,0.00,,,0.00,WeatherDisplay:10.37,2013-04-23 12:33:00,
2013-04-23 08:38:00,42.3,32.8,30.27,South,179,11.0,11.0,69,0.00,,,0.00,WeatherDisplay:10.37,2013-04-23 12:38:00,
2013-04-23 08:43:00,42.4,33.3,30.26,SSW,196,9.2,9.2,70,0.00,,,0.00,WeatherDisplay:10.37,2013-04-23 12:43:00,
2013-04-23 08:48:00,42.6,33.1,30.26,WSW,238,11.5,11.5,69,0.00,,,0.00,WeatherDisplay:10.37,2013-04-23 12:48:00,
2013-04-23 08:53:00,42.9,33.4,30.26,SW,217,7.0,7.0,69,0.00,,,0.00,WeatherDisplay:10.37,2013-04-23 12:53:00,
2013-04-23 08:58:00,43.1,33.3,30.26,SSW,210,11.5,11.5,68,0.00,,,0.00,WeatherDisplay:10.37,2013-04-23 12:58:00,
2013-04-23 09:03:00,43.3,33.4,30.26,SW,215,4.0,4.0,68,0.00,,,0.00,WeatherDisplay:10.37,2013-04-23 13:03:00,
2013-04-23 09:08:00,43.4,33.2,30.26,SSW,195,11.0,11.0,67,0.00,,,0.00,WeatherDisplay:10.37,2013-04-23 13:08:00,
2013-04-23 09:13:00,43.6,33.0,30.26,SSW,199,11.5,11.5,66,0.00,,,0.00,WeatherDisplay:10.37,2013-04-23 13:13:00,
2013-04-23 09:18:00,43.8,33.6,30.25,SW,215,10.4,10.4,67,0.00,,,0.00,WeatherDisplay:10.37,2013-04-23 13:18:00,
2013-04-23 09:23:00,43.9,33.6,30.25,SSW,202,11.0,11.0,67,0.00,,,0.00,WeatherDisplay:10.37,2013-04-23 13:23:00,
2013-04-23 09:28:00,44.1,33.5,30.25,South,174,9.2,9.2,66,0.00,,,0.00,WeatherDisplay:10.37,2013-04-23 13:28:00,
2013-04-23 09:33:00,44.4,33.4,30.25,SE,125,5.8,5.8,65,0.00,,,0.00,WeatherDisplay:10.37,2013-04-23 13:33:00,
2013-04-23 09:38:00,44.4,33.4,30.24,SW,217,11.5,11.5,65,0.00,,,0.00,WeatherDisplay:10.37,2013-04-23 13:38:00,
2013-04-23 09:43:00,44.3,33.7,30.24,SW,219,6.9,6.9,66,0.00,,,0.00,WeatherDisplay:10.37,2013-04-23 13:43:00,
2013-04-23 09:48:00,44.3,34.0,30.24,SE,140,6.9,6.9,67,0.00,,,0.00,WeatherDisplay:10.37,2013-04-23 13:48:00,
2013-04-23 09:53:00,44.9,33.5,30.23,SSW,198,10.4,10.4,64,0.00,,,0.00,WeatherDisplay:10.37,2013-04-23 13:53:00,
2013-04-23 09:58:00,45.2,34.1,30.23,SW,221,13.0,13.0,65,0.00,,,0.00,WeatherDisplay:10.37,2013-04-23 13:58:00,
2013-04-23 10:03:00,45.4,33.9,30.24,South,185,6.9,6.9,64,0.00,,,0.00,WeatherDisplay:10.37,2013-04-23 14:03:00,
2013-04-23 10:08:00,45.9,34.0,30.23,SW,228,7.0,7.0,63,0.00,,,0.00,WeatherDisplay:10.37,2013-04-23 14:08:00,
2013-04-23 10:13:00,46.2,34.3,30.23,SE,143,8.1,8.1,63,0.00,,,0.00,WeatherDisplay:10.37,2013-04-23 14:13:00,
2013-04-23 10:18:00,46.6,34.3,30.23,SSE,152,8.0,8.0,62,0.00,,,0.00,WeatherDisplay:10.37,2013-04-23 14:18:00,
2013-04-23 10:23:00,47.0,34.6,30.23,SSW,207,9.0,9.0,62,0.00,,,0.00,WeatherDisplay:10.37,2013-04-23 14:23:00,
2013-04-23 10:28:00,47.4,34.6,30.23,SSW,205,6.0,6.0,61,0.00,,,0.00,WeatherDisplay:10.37,2013-04-23 14:28:00,
2013-04-23 10:33:00,47.5,34.3,30.22,SSW,210,7.0,7.0,60,0.00,,,0.00,WeatherDisplay:10.37,2013-04-23 14:33:00,
2013-04-23 10:38:00,46.3,34.4,30.22,SSW,210,7.0,7.0,63,0.00,,,0.00,WeatherDisplay:10.37,2013-04-23 14:38:00,
2013-04-23 10:43:00,46.3,34.4,30.22,South,184,11.5,11.5,63,0.00,,,0.00,WeatherDisplay:10.37,2013-04-23 14:43:00,
2013-04-23 10:48:00,46.4,34.9,30.22,SSW,213,18.0,18.0,64,0.00,,,0.00,WeatherDisplay:10.37,2013-04-23 14:48:00,
2013-04-23 10:53:00,46.3,34.4,30.22,South,183,11.5,11.5,63,0.00,,,0.00,WeatherDisplay:10.37,2013-04-23 14:53:00,
2013-04-23 10:59:00,46.4,34.1,30.22,South,190,11.5,11.5,62,0.00,,,0.00,WeatherDisplay:10.37,2013-04-23 14:59:00,
2013-04-23 11:04:00,47.2,34.8,30.22,SW,229,10.4,10.4,62,0.00,,,0.00,WeatherDisplay:10.37,2013-04-23 15:04:00,
2013-04-23 11:09:00,46.8,34.5,30.22,SW,229,13.8,13.8,62,0.00,,,0.00,WeatherDisplay:10.37,2013-04-23 15:09:00,
2013-04-23 11:14:00,47.1,34.7,30.22,SSW,196,5.8,5.8,62,0.00,,,0.00,WeatherDisplay:10.37,2013-04-23 15:14:00,
2013-04-23 11:19:00,48.2,35.4,30.21,SSW,205,11.5,11.5,61,0.00,,,0.00,WeatherDisplay:10.37,2013-04-23 15:19:00,
2013-04-23 11:24:00,48.1,35.7,30.21,SW,215,10.0,10.0,62,0.00,,,0.00,WeatherDisplay:10.37,2013-04-23 15:24:00,
2013-04-23 11:30:00,47.9,35.1,30.21,SW,225,10.4,10.4,61,0.00,,,0.00,WeatherDisplay:10.37,2013-04-23 15:30:00,
2013-04-23 11:35:00,48.1,34.9,30.20,SW,219,11.5,11.5,60,0.00,,,0.00,WeatherDisplay:10.37,2013-04-23 15:35:00,
2013-04-23 11:40:00,48.0,36.0,30.20,SW,227,11.0,11.0,63,0.00,,,0.00,WeatherDisplay:10.37,2013-04-23 15:40:00,
2013-04-23 11:45:00,48.5,35.7,30.20,SE,138,6.9,6.9,61,0.00,,,0.00,WeatherDisplay:10.37,2013-04-23 15:45:00,
2013-04-23 11:50:00,48.8,36.4,30.19,SW,232,11.5,11.5,62,0.00,,,0.00,WeatherDisplay:10.37,2013-04-23 15:50:00,
2013-04-23 11:55:00,48.6,35.7,30.19,SSW,212,9.2,9.2,61,0.00,,,0.00,WeatherDisplay:10.37,2013-04-23 15:55:00,
2013-04-23 12:00:00,48.9,34.8,30.18,SW,223,7.0,7.0,58,0.00,,,0.00,WeatherDisplay:10.37,2013-04-23 16:00:00,
2013-04-23 12:05:00,49.0,35.7,30.18,SW,220,11.5,11.5,60,0.00,,,0.00,WeatherDisplay:10.37,2013-04-23 16:05:00,
2013-04-23 12:10:00,49.3,35.1,30.18,SW,219,15.0,15.0,58,0.00,,,0.00,WeatherDisplay:10.37,2013-04-23 16:10:00,
2013-04-23 12:15:00,49.6,35.4,30.18,SW,233,6.9,6.9,58,0.00,,,0.00,WeatherDisplay:10.37,2013-04-23 16:15:00,
2013-04-23 12:20:00,50.0,35.4,30.17,SSW,203,6.0,6.0,57,0.00,,,0.00,WeatherDisplay:10.37,2013-04-23 16:20:00,
2013-04-23 12:25:00,50.1,35.4,30.17,SW,214,12.7,12.7,57,0.00,,,0.00,WeatherDisplay:10.37,2013-04-23 16:25:00,
2013-04-23 12:30:00,50.0,36.2,30.17,SSW,212,9.2,9.2,59,0.00,,,0.00,WeatherDisplay:10.37,2013-04-23 16:30:00,
2013-04-23 12:35:00,50.3,37.4,30.17,SW,223,11.5,11.5,61,0.00,,,0.00,WeatherDisplay:10.37,2013-04-23 16:35:00,
2013-04-23 12:40:00,50.4,36.2,30.17,WSW,238,8.1,8.1,58,0.00,,,0.00,WeatherDisplay:10.37,2013-04-23 16:40:00,
2013-04-23 12:45:00,50.6,36.4,30.16,SSW,194,10.4,10.4,58,0.00,,,0.00,WeatherDisplay:10.37,2013-04-23 16:45:00,
2013-04-23 12:50:00,51.0,37.6,30.16,SSW,211,7.0,7.0,60,0.00,,,0.00,WeatherDisplay:10.37,2013-04-23 16:50:00,
2013-04-23 12:55:00,50.8,36.5,30.17,SW,233,6.9,6.9,58,0.00,,,0.00,WeatherDisplay:10.37,2013-04-23 16:55:00,
2013-04-23 13:00:00,51.3,37.0,30.17,SW,226,5.0,5.0,58,0.00,,,0.00,WeatherDisplay:10.37,2013-04-23 17:00:00,
2013-04-23 13:05:00,51.7,36.9,30.17,SW,236,5.8,5.8,57,0.00,,,0.00,WeatherDisplay:10.37,2013-04-23 17:05:00,
2013-04-23 13:10:00,52.2,36.5,30.17,WSW,238,12.7,12.7,55,0.00,,,0.00,WeatherDisplay:10.37,2013-04-23 17:10:00,
2013-04-23 13:15:00,51.8,36.1,30.17,SW,218,5.8,5.8,55,0.00,,,0.00,WeatherDisplay:10.37,2013-04-23 17:15:00,
2013-04-23 13:20:00,52.3,37.1,30.17,SW,224,11.0,11.0,56,0.00,,,0.00,WeatherDisplay:10.37,2013-04-23 17:20:00,
2013-04-23 13:25:00,52.9,36.7,30.17,SSW,205,5.0,5.0,54,0.00,,,0.00,WeatherDisplay:10.37,2013-04-23 17:25:00,
2013-04-23 13:30:00,54.4,37.1,30.16,SE,129,7.0,7.0,52,0.00,,,0.00,WeatherDisplay:10.37,2013-04-23 17:30:00,
2013-04-23 13:35:00,54.6,37.3,30.16,SW,217,10.0,10.0,52,0.00,,,0.00,WeatherDisplay:10.37,2013-04-23 17:35:00,
2013-04-23 13:40:00,53.8,38.0,30.16,SW,217,15.0,15.0,55,0.00,,,0.00,WeatherDisplay:10.37,2013-04-23 17:40:00,
2013-04-23 13:45:00,53.8,36.1,30.16,SSW,199,10.4,10.4,51,0.00,,,0.00,WeatherDisplay:10.37,2013-04-23 17:45:00,
2013-04-23 13:50:00,53.7,37.4,30.16,SW,222,10.4,10.4,54,0.00,,,0.00,WeatherDisplay:10.37,2013-04-23 17:50:00,
2013-04-23 13:55:00,53.4,36.7,30.16,SW,231,9.2,9.2,53,0.00,,,0.00,WeatherDisplay:10.37,2013-04-23 17:55:00,
2013-04-23 14:00:00,53.8,35.6,30.16,SSW,210,3.5,3.5,50,0.00,,,0.00,WeatherDisplay:10.37,2013-04-23 18:00:00,
2013-04-23 14:05:00,54.3,37.0,30.16,SW,219,10.0,10.0,52,0.00,,,0.00,WeatherDisplay:10.37,2013-04-23 18:05:00,
2013-04-23 14:10:00,54.3,37.0,30.16,SW,217,9.0,9.0,52,0.00,,,0.00,WeatherDisplay:10.37,2013-04-23 18:10:00,
2013-04-23 14:15:00,54.9,37.1,30.16,WSW,243,5.8,5.8,51,0.00,,,0.00,WeatherDisplay:10.37,2013-04-23 18:15:00,
2013-04-23 14:20:00,54.8,36.5,30.16,SSW,196,6.9,6.9,50,0.00,,,0.00,WeatherDisplay:10.37,2013-04-23 18:20:00,
2013-04-23 14:25:00,55.4,37.1,30.15,SW,225,9.0,9.0,50,0.00,,,0.00,WeatherDisplay:10.37,2013-04-23 18:25:00,
2013-04-23 14:30:00,55.7,38.8,30.15,SSW,204,5.8,5.8,53,0.00,,,0.00,WeatherDisplay:10.37,2013-04-23 18:30:00,
2013-04-23 14:35:00,56.5,37.0,30.14,South,190,3.5,3.5,48,0.00,,,0.00,WeatherDisplay:10.37,2013-04-23 18:35:00,
2013-04-23 14:40:00,56.6,39.2,30.14,SE,132,4.6,4.6,52,0.00,,,0.00,WeatherDisplay:10.37,2013-04-23 18:40:00,
2013-04-23 14:45:00,56.7,37.2,30.14,SW,232,10.4,10.4,48,0.00,,,0.00,WeatherDisplay:10.37,2013-04-23 18:45:00,
2013-04-23 14:50:00,56.3,37.9,30.13,SE,131,6.0,6.0,50,0.00,,,0.00,WeatherDisplay:10.37,2013-04-23 18:50:00,
2013-04-23 14:55:00,56.8,38.3,30.13,SW,218,4.6,4.6,50,0.00,,,0.00,WeatherDisplay:10.37,2013-04-23 18:55:00,
2013-04-23 15:00:00,56.7,37.7,30.12,SSW,199,10.4,10.4,49,0.00,,,0.00,WeatherDisplay:10.37,2013-04-23 19:00:00,
2013-04-23 15:05:00,57.2,38.2,30.12,SW,218,6.9,6.9,49,0.00,,,0.00,WeatherDisplay:10.37,2013-04-23 19:05:00,
2013-04-23 15:10:00,57.4,37.9,30.11,SSW,207,5.8,5.8,48,0.00,,,0.00,WeatherDisplay:10.37,2013-04-23 19:10:00,
2013-04-23 15:15:00,58.4,38.2,30.11,SSE,162,9.2,9.2,47,0.00,,,0.00,WeatherDisplay:10.37,2013-04-23 19:15:00,
2013-04-23 15:20:00,58.6,38.4,30.10,South,186,10.4,10.4,47,0.00,,,0.00,WeatherDisplay:10.37,2013-04-23 19:20:00,
2013-04-23 15:25:00,58.0,36.8,30.10,SSW,209,9.2,9.2,45,0.00,,,0.00,WeatherDisplay:10.37,2013-04-23 19:25:00,
2013-04-23 15:30:00,58.9,38.7,30.09,SW,230,3.5,3.5,47,0.00,,,0.00,WeatherDisplay:10.37,2013-04-23 19:30:00,
2013-04-23 15:35:00,59.0,38.2,30.09,SE,126,9.2,9.2,46,0.00,,,0.00,WeatherDisplay:10.37,2013-04-23 19:35:00,
2013-04-23 15:40:00,59.3,37.9,30.08,SSW,212,9.2,9.2,45,0.00,,,0.00,WeatherDisplay:10.37,2013-04-23 19:40:00,
2013-04-23 15:45:00,59.0,37.1,30.08,SSW,213,9.2,9.2,44,0.00,,,0.00,WeatherDisplay:10.37,2013-04-23 19:45:00,
2013-04-23 15:50:00,58.4,38.2,30.07,SSW,213,12.0,12.0,47,0.00,,,0.00,WeatherDisplay:10.37,2013-04-23 19:50:00,
2013-04-23 15:55:00,59.5,38.7,30.08,SW,229,6.9,6.9,46,0.00,,,0.00,WeatherDisplay:10.37,2013-04-23 19:55:00,
2013-04-23 16:00:00,59.9,38.5,30.08,SSW,200,6.9,6.9,45,0.00,,,0.00,WeatherDisplay:10.37,2013-04-23 20:00:00,
2013-04-23 16:05:00,59.4,37.5,30.08,SW,217,9.2,9.2,44,0.00,,,0.00,WeatherDisplay:10.37,2013-04-23 20:05:00,
2013-04-23 16:10:00,60.0,38.0,30.08,SW,223,9.0,9.0,44,0.00,,,0.00,WeatherDisplay:10.37,2013-04-23 20:10:00,
2013-04-23 16:15:00,60.2,37.6,30.08,SW,223,11.5,11.5,43,0.00,,,0.00,WeatherDisplay:10.37,2013-04-23 20:15:00,
2013-04-23 16:20:00,60.1,38.1,30.08,SSW,212,11.5,11.5,44,0.00,,,0.00,WeatherDisplay:10.37,2013-04-23 20:20:00,
2013-04-23 16:25:00,60.4,37.8,30.08,SSW,195,6.9,6.9,43,0.00,,,0.00,WeatherDisplay:10.37,2013-04-23 20:25:00,
2013-04-23 16:30:00,60.7,37.5,30.07,SW,227,3.5,3.5,42,0.00,,,0.00,WeatherDisplay:10.37,2013-04-23 20:30:00,
2013-04-23 16:35:00,61.1,38.4,30.06,ESE,110,9.2,9.2,43,0.00,,,0.00,WeatherDisplay:10.37,2013-04-23 20:35:00,
2013-04-23 16:40:00,61.2,39.1,30.06,SW,219,12.7,12.7,44,0.00,,,0.00,WeatherDisplay:10.37,2013-04-23 20:40:00,
2013-04-23 16:45:00,61.1,38.4,30.06,SE,130,12.7,12.7,43,0.00,,,0.00,WeatherDisplay:10.37,2013-04-23 20:45:00,
2013-04-23 16:50:00,61.2,39.7,30.06,SW,215,11.5,11.5,45,0.00,,,0.00,WeatherDisplay:10.37,2013-04-23 20:50:00,
2013-04-23 16:55:00,60.8,39.3,30.05,SSW,212,12.7,12.7,45,0.00,,,0.00,WeatherDisplay:10.37,2013-04-23 20:55:00,
2013-04-23 17:00:00,60.9,38.8,30.05,SW,231,9.2,9.2,44,0.00,,,0.00,WeatherDisplay:10.37,2013-04-23 21:00:00,
2013-04-23 17:05:00,60.9,38.2,30.05,SSW,199,6.9,6.9,43,0.00,,,0.00,WeatherDisplay:10.37,2013-04-23 21:05:00,
2013-04-23 17:10:00,61.1,39.0,30.04,SW,215,18.4,18.4,44,0.00,,,0.00,WeatherDisplay:10.37,2013-04-23 21:10:00,
2013-04-23 17:15:00,61.0,40.1,30.04,WSW,256,2.3,2.3,46,0.00,,,0.00,WeatherDisplay:10.37,2013-04-23 21:15:00,
2013-04-23 17:20:00,61.3,39.8,30.04,SSW,198,9.2,9.2,45,0.00,,,0.00,WeatherDisplay:10.37,2013-04-23 21:20:00,
2013-04-23 17:25:00,61.5,38.8,30.03,ESE,103,11.5,11.5,43,0.00,,,0.00,WeatherDisplay:10.37,2013-04-23 21:25:00,
2013-04-23 17:30:00,61.6,38.9,30.03,SW,214,6.9,6.9,43,0.00,,,0.00,WeatherDisplay:10.37,2013-04-23 21:30:00,
2013-04-23 17:35:00,61.9,37.9,30.03,ESE,109,11.5,11.5,41,0.00,,,0.00,WeatherDisplay:10.37,2013-04-23 21:35:00,
2013-04-23 17:40:00,61.8,37.8,30.03,South,182,11.5,11.5,41,0.00,,,0.00,WeatherDisplay:10.37,2013-04-23 21:40:00,
2013-04-23 17:45:00,61.7,39.0,30.02,SSW,207,15.0,15.0,43,0.00,,,0.00,WeatherDisplay:10.37,2013-04-23 21:45:00,
2013-04-23 17:50:00,61.7,37.7,30.03,SSE,161,3.5,3.5,41,0.00,,,0.00,WeatherDisplay:10.37,2013-04-23 21:50:00,
2013-04-23 17:55:00,61.7,38.4,30.03,SSW,209,12.7,12.7,42,0.00,,,0.00,WeatherDisplay:10.37,2013-04-23 21:55:00,
2013-04-23 18:00:00,61.7,36.5,30.03,SW,215,11.5,11.5,39,0.00,,,0.00,WeatherDisplay:10.37,2013-04-23 22:00:00,
2013-04-23 18:05:00,61.6,37.0,30.03,SW,227,11.5,11.5,40,0.00,,,0.00,WeatherDisplay:10.37,2013-04-23 22:05:00,
2013-04-23 18:10:00,61.3,36.1,30.03,SSW,203,10.4,10.4,39,0.00,,,0.00,WeatherDisplay:10.37,2013-04-23 22:10:00,
2013-04-23 18:15:00,61.3,36.8,30.03,SSW,205,11.0,11.0,40,0.00,,,0.00,WeatherDisplay:10.37,2013-04-23 22:15:00,
2013-04-23 18:20:00,61.4,38.1,30.03,SW,226,10.4,10.4,42,0.00,,,0.00,WeatherDisplay:10.37,2013-04-23 22:20:00,
2013-04-23 18:25:00,61.1,37.8,30.03,SW,225,10.4,10.4,42,0.00,,,0.00,WeatherDisplay:10.37,2013-04-23 22:25:00,
2013-04-23 18:30:00,61.0,37.1,30.03,SW,215,11.5,11.5,41,0.00,,,0.00,WeatherDisplay:10.37,2013-04-23 22:30:00,
2013-04-23 18:35:00,61.0,37.7,30.03,SSW,207,3.5,3.5,42,0.00,,,0.00,WeatherDisplay:10.37,2013-04-23 22:35:00,
2013-04-23 18:40:00,61.1,37.8,30.03,SSW,206,13.8,13.8,42,0.00,,,0.00,WeatherDisplay:10.37,2013-04-23 22:40:00,
2013-04-23 18:45:00,61.0,38.3,30.03,SSW,212,10.0,10.0,43,0.00,,,0.00,WeatherDisplay:10.37,2013-04-23 22:45:00,
2013-04-23 18:50:00,60.8,37.5,30.02,SSE,164,5.8,5.8,42,0.00,,,0.00,WeatherDisplay:10.37,2013-04-23 22:50:00,
2013-04-23 18:55:00,60.8,38.1,30.02,SW,220,9.0,9.0,43,0.00,,,0.00,WeatherDisplay:10.37,2013-04-23 22:55:00,
2013-04-23 19:00:00,60.6,38.0,30.02,SSW,207,5.8,5.8,43,0.00,,,0.00,WeatherDisplay:10.37,2013-04-23 23:00:00,
2013-04-23 19:05:00,60.5,38.5,30.02,SE,141,5.8,5.8,44,0.00,,,0.00,WeatherDisplay:10.37,2013-04-23 23:05:00,
2013-04-23 19:10:00,60.4,37.8,30.02,SW,221,7.0,7.0,43,0.00,,,0.00,WeatherDisplay:10.37,2013-04-23 23:10:00,
2013-04-23 19:15:00,60.2,38.2,30.02,WSW,238,7.0,7.0,44,0.00,,,0.00,WeatherDisplay:10.37,2013-04-23 23:15:00,
2013-04-23 19:20:00,60.0,37.4,30.02,South,187,6.9,6.9,43,0.00,,,0.00,WeatherDisplay:10.37,2013-04-23 23:20:00,
2013-04-23 19:25:00,59.7,37.7,30.02,SSE,161,3.5,3.5,44,0.00,,,0.00,WeatherDisplay:10.37,2013-04-23 23:25:00,
2013-04-23 19:30:00,59.5,37.6,30.02,SSW,201,1.1,0.0,44,0.00,,,0.00,WeatherDisplay:10.37,2013-04-23 23:30:00,
2013-04-23 19:35:00,59.1,37.2,30.02,SSW,193,5.8,5.8,44,0.00,,,0.00,WeatherDisplay:10.37,2013-04-23 23:35:00,
2013-04-23 19:40:00,59.0,37.7,30.02,SSW,197,9.2,9.2,45,0.00,,,0.00,WeatherDisplay:10.37,2013-04-23 23:40:00,
2013-04-23 19:45:00,58.7,37.4,30.02,SW,216,0.0,0.0,45,0.00,,,0.00,WeatherDisplay:10.37,2013-04-23 23:45:00,
2013-04-23 19:50:00,58.4,37.1,30.02,SSW,196,2.3,0.0,45,0.00,,,0.00,WeatherDisplay:10.37,2013-04-23 23:50:00,
2013-04-23 19:55:00,58.0,37.3,30.02,SSW,192,4.6,4.6,46,0.00,,,0.00,WeatherDisplay:10.37,2013-04-23 23:55:00,
2013-04-23 20:00:00,57.6,37.0,30.02,South,191,2.3,0.0,46,0.00,,,0.00,WeatherDisplay:10.37,2013-04-24 00:00:00,
2013-04-23 20:05:00,57.3,36.7,30.01,SSE,158,5.8,5.8,46,0.00,,,0.00,WeatherDisplay:10.37,2013-04-24 00:05:00,
2013-04-23 20:10:00,57.0,36.4,30.01,SE,136,4.6,4.6,46,0.00,,,0.00,WeatherDisplay:10.37,2013-04-24 00:10:00,
2013-04-23 20:15:00,56.8,36.8,30.01,South,191,5.8,5.8,47,0.00,,,0.00,WeatherDisplay:10.37,2013-04-24 00:15:00,
2013-04-23 20:20:00,56.6,36.6,30.02,South,180,1.1,1.1,47,0.00,,,0.00,WeatherDisplay:10.37,2013-04-24 00:20:00,
2013-04-23 20:25:00,56.3,36.3,30.02,SSW,194,10.4,10.4,47,0.00,,,0.00,WeatherDisplay:10.37,2013-04-24 00:25:00,
2013-04-23 20:30:00,56.2,36.2,30.01,South,191,3.5,3.5,47,0.00,,,0.00,WeatherDisplay:10.37,2013-04-24 00:30:00,
2013-04-23 20:35:00,56.0,36.6,30.02,SSW,192,0.0,0.0,48,0.00,,,0.00,WeatherDisplay:10.37,2013-04-24 00:35:00,
2013-04-23 20:40:00,55.8,36.4,30.01,SSW,202,0.0,0.0,48,0.00,,,0.00,WeatherDisplay:10.37,2013-04-24 00:40:00,
2013-04-23 20:45:00,55.5,36.1,30.01,SSW,201,4.6,4.6,48,0.00,,,0.00,WeatherDisplay:10.37,2013-04-24 00:45:00,
2013-04-23 20:50:00,55.4,35.5,30.01,South,187,4.6,4.6,47,0.00,,,0.00,WeatherDisplay:10.37,2013-04-24 00:50:00,
2013-04-23 20:55:00,55.2,35.8,30.02,South,175,2.0,2.0,48,0.00,,,0.00,WeatherDisplay:10.37,2013-04-24 00:55:00,
2013-04-23 21:00:00,55.1,35.7,30.02,South,182,3.5,3.5,48,0.00,,,0.00,WeatherDisplay:10.37,2013-04-24 01:00:00,
2013-04-23 21:05:00,55.0,35.7,30.02,SSW,198,0.0,0.0,48,0.00,,,0.00,WeatherDisplay:10.37,2013-04-24 01:05:00,
2013-04-23 21:10:00,54.9,36.6,30.02,SSW,207,4.6,4.6,50,0.00,,,0.00,WeatherDisplay:10.37,2013-04-24 01:10:00,
2013-04-23 21:15:00,54.8,39.8,30.02,SW,219,6.9,6.9,57,0.00,,,0.00,WeatherDisplay:10.37,2013-04-24 01:15:00,
2013-04-23 21:20:00,54.5,39.6,30.03,SW,224,3.5,3.5,57,0.00,,,0.00,WeatherDisplay:10.37,2013-04-24 01:20:00,
2013-04-23 21:25:00,54.1,39.6,30.03,SW,225,3.5,3.5,58,0.00,,,0.00,WeatherDisplay:10.37,2013-04-24 01:25:00,
2013-04-23 21:30:00,53.9,38.6,30.03,SW,225,1.0,0.0,56,0.00,,,0.00,WeatherDisplay:10.37,2013-04-24 01:30:00,
2013-04-23 21:35:00,53.7,38.4,30.03,SSW,194,5.0,0.0,56,0.00,,,0.00,WeatherDisplay:10.37,2013-04-24 01:35:00,
2013-04-23 21:40:00,53.5,37.7,30.02,SW,215,9.2,9.2,55,0.00,,,0.00,WeatherDisplay:10.37,2013-04-24 01:40:00,
2013-04-23 21:45:00,53.6,37.3,30.02,SW,226,5.0,5.0,54,0.00,,,0.00,WeatherDisplay:10.37,2013-04-24 01:45:00,
2013-04-23 21:50:00,53.7,37.4,30.02,SW,219,6.0,6.0,54,0.00,,,0.00,WeatherDisplay:10.37,2013-04-24 01:50:00,
2013-04-23 21:55:00,53.7,37.0,30.02,SSW,205,5.0,5.0,53,0.00,,,0.00,WeatherDisplay:10.37,2013-04-24 01:55:00,
2013-04-23 22:00:00,53.6,36.9,30.02,South,188,4.6,4.6,53,0.00,,,0.00,WeatherDisplay:10.37,2013-04-24 02:00:00,
2013-04-23 22:05:00,53.5,36.8,30.02,South,184,5.8,0.0,53,0.00,,,0.00,WeatherDisplay:10.37,2013-04-24 02:05:00,
2013-04-23 22:10:00,53.4,36.7,30.01,SW,215,10.4,10.4,53,0.00,,,0.00,WeatherDisplay:10.37,2013-04-24 02:10:00,
2013-04-23 22:15:00,53.3,37.1,30.01,SSW,198,10.4,10.4,54,0.00,,,0.00,WeatherDisplay:10.37,2013-04-24 02:15:00,
2013-04-23 22:21:00,53.2,37.0,30.01,South,178,9.2,9.2,54,0.00,,,0.00,WeatherDisplay:10.37,2013-04-24 02:21:00,
2013-04-23 22:26:00,53.1,37.3,30.01,SSW,206,0.0,0.0,55,0.00,,,0.00,WeatherDisplay:10.37,2013-04-24 02:26:00,
2013-04-23 22:31:00,53.0,37.3,30.00,SSW,206,11.5,11.5,55,0.00,,,0.00,WeatherDisplay:10.37,2013-04-24 02:31:00,
2013-04-23 22:36:00,52.9,37.6,30.00,SSW,200,3.5,3.5,56,0.00,,,0.00,WeatherDisplay:10.37,2013-04-24 02:36:00,
2013-04-23 22:41:00,52.8,37.5,30.00,SSW,203,10.4,10.4,56,0.00,,,0.00,WeatherDisplay:10.37,2013-04-24 02:41:00,
2013-04-23 22:46:00,52.7,37.4,29.99,SSW,193,3.5,0.0,56,0.00,,,0.00,WeatherDisplay:10.37,2013-04-24 02:46:00,
2013-04-23 22:51:00,52.6,37.8,29.99,SW,233,9.2,9.2,57,0.00,,,0.00,WeatherDisplay:10.37,2013-04-24 02:51:00,
2013-04-23 22:56:00,52.6,38.2,29.99,SW,216,10.4,10.4,58,0.00,,,0.00,WeatherDisplay:10.37,2013-04-24 02:56:00,
2013-04-23 23:02:00,52.4,38.0,29.99,SSW,208,5.0,5.0,58,0.00,,,0.00,WeatherDisplay:10.37,2013-04-24 03:02:00,
2013-04-23 23:07:00,52.3,38.0,29.99,SW,235,4.6,0.0,58,0.00,,,0.00,WeatherDisplay:10.37,2013-04-24 03:07:00,
2013-04-23 23:12:00,52.2,37.9,29.99,SW,224,5.8,5.8,58,0.00,,,0.00,WeatherDisplay:10.37,2013-04-24 03:12:00,
2013-04-23 23:17:00,52.1,37.8,29.98,SW,226,10.4,10.4,58,0.00,,,0.00,WeatherDisplay:10.37,2013-04-24 03:17:00,
2013-04-23 23:23:00,52.1,38.2,29.98,SW,220,10.4,10.4,59,0.00,,,0.00,WeatherDisplay:10.37,2013-04-24 03:23:00,
2013-04-23 23:28:00,52.0,38.1,29.98,SW,225,7.0,7.0,59,0.00,,,0.00,WeatherDisplay:10.37,2013-04-24 03:28:00,
2013-04-23 23:33:00,51.9,38.0,29.98,SSW,206,5.8,5.8,59,0.00,,,0.00,WeatherDisplay:10.37,2013-04-24 03:33:00,
2013-04-23 23:38:00,51.9,38.0,29.97,SSW,203,11.5,11.5,59,0.00,,,0.00,WeatherDisplay:10.37,2013-04-24 03:38:00,
2013-04-23 23:43:00,51.8,38.3,29.97,South,191,9.0,9.0,60,0.00,,,0.00,WeatherDisplay:10.37,2013-04-24 03:43:00,
2013-04-23 23:48:00,51.8,38.3,29.97,SW,225,5.8,5.8,60,0.00,,,0.00,WeatherDisplay:10.37,2013-04-24 03:48:00,
2013-04-23 23:53:00,51.8,38.3,29.97,SW,216,9.2,9.2,60,0.00,,,0.00,WeatherDisplay:10.37,2013-04-24 03:53:00,
2013-04-23 23:58:00,51.9,38.9,29.97,SW,218,9.2,9.2,61,0.00,,,0.00,WeatherDisplay:10.37,2013-04-24 03:58:00,